Warning: fopen(/var/www/metroair/shared/private/wxdata/TAF/AVWX/taf_KOKC): failed to open stream: Permission denied in /var/www/metroair/shared/private/library/orig_library/lib_airport.php on line 533

Warning: fwrite() expects parameter 1 to be resource, boolean given in /var/www/metroair/shared/private/library/orig_library/lib_airport.php on line 534

Warning: fclose() expects parameter 1 to be resource, boolean given in /var/www/metroair/shared/private/library/orig_library/lib_airport.php on line 535
Featured Flight

MET2281 - Kansas City to Oklahoma City

Bombardier Dash-8-Q200
824AG
1 hr 20 mins
272 nm
Scheduled - Daily

Bid/PiRep Status

Bid was submitted on Oct 21 2016.

PiRep # 73801: Approved by Dave Nichols on October 26th, 2016 20:43 UTC

Departure

Departing from
Kansas City (MCI)
Departure gate
Scheduled Departure
GMT 1500
Local 0900
METAR KMCI 221353Z COR 36013KT 9SM FEW045 BKN075 OVC130 07/03 A2963 RMK AO2 SLP033 T00670033 $
TAF KMCI 221120Z 2212/2312 02009KT P6SM BKN060 FM221800 35012G20KT P6SM BKN100 FM222200 33011KT P6SM OVC050 TEMPO 2223/2303 OVC025 FM230600 33006KT P6SM BKN250
  • No charts available

Arrival

Arriving at
Oklahoma City (OKC)
Arrival gate
8
Scheduled Arrival
GMT 1620
Local 1020
METAR KOKC 221352Z 35026G35KT 10SM -RA SCT012 BKN049 OVC110 09/07 A2953 RMK AO2 PK WND 01039/1338 RAE22B44 SLP996 P0000 T00890072
TAF KOKC 221135Z 2212/2312 33014KT P6SM VCSH BKN007 TEMPO 2213/2215 5SM -RA FM221500 34021G29KT P6SM BKN025 FM221600 34022G28KT P6SM SKC FM230000 32010KT P6SM SKC

Route Map

Planning Resources

WLDCT2 GULLI1
DOSOA J25 TUL GULLI
â– RACER3 DOSOA TUL TRUMP5
KMCI DOSOA TUL DWINE KOKC
DOSOA WP1 TUL KOKC
Route:
OFP Layout:
Units:
Detailed Navlog:
ETOPS Planning:
Plan Stepclimbs:
Runway Analysis:
Include NOTAMS:
FIR NOTAMS:
Flight Maps:

Return Flights

MET2282
Bombardier Dash-8-Q200
1650 GMT
MET2286
Bombardier Dash-8-Q200
2330 GMT
MET3421
Bombardier Dash-8-Q400
1335 GMT
MET3423
Bombardier Dash-8-Q400
2040 GMT

Popularity

Hub Current Bids PiReps this month Total PiReps
KMCI 0 0 1
KLAX 0 0 0
KBOS 0 0 0